sensor_id;sensor_type;location;lat;lon;timestamp;noise_LAeq;noise_LA_min;noise_LA_max;noise_LA01;noise_LA95
76261;Laerm;65076;52.362;6.588;2023-08-12T00:01:03;42.83;31.56;60.53;;
76261;Laerm;65076;52.362;6.588;2023-08-12T00:03:32;35.23;32.47;46.22;;
76261;Laerm;65076;52.362;6.588;2023-08-12T00:06:01;34.94;32.46;43.11;;
76261;Laerm;65076;52.362;6.588;2023-08-12T00:08:32;35.08;32.21;41.30;;
76261;Laerm;65076;52.362;6.588;2023-08-12T00:11:00;36.05;32.09;44.38;;
76261;Laerm;65076;52.362;6.588;2023-08-12T00:13:28;36.55;32.64;53.55;;
76261;Laerm;65076;52.362;6.588;2023-08-12T00:15:56;34.92;31.08;41.67;;
76261;Laerm;65076;52.362;6.588;2023-08-12T00:18:24;35.79;32.87;38.87;;
76261;Laerm;65076;52.362;6.588;2023-08-12T00:20:52;35.79;32.54;43.24;;
76261;Laerm;65076;52.362;6.588;2023-08-12T00:23:21;36.57;32.42;51.09;;
76261;Laerm;65076;52.362;6.588;2023-08-12T00:25:49;36.11;32.01;47.92;;
76261;Laerm;65076;52.362;6.588;2023-08-12T00:28:18;35.94;31.27;51.46;;
76261;Laerm;65076;52.362;6.588;2023-08-12T00:30:48;34.37;31.48;41.22;;
76261;Laerm;65076;52.362;6.588;2023-08-12T00:33:16;35.08;31.53;43.51;;
76261;Laerm;65076;52.362;6.588;2023-08-12T00:35:45;35.19;31.70;43.24;;
76261;Laerm;65076;52.362;6.588;2023-08-12T00:38:13;35.45;31.28;44.94;;
76261;Laerm;65076;52.362;6.588;2023-08-12T00:40:42;34.95;31.83;38.71;;
76261;Laerm;65076;52.362;6.588;2023-08-12T00:43:10;67.71;32.06;82.63;;
76261;Laerm;65076;52.362;6.588;2023-08-12T00:45:40;36.21;31.75;51.41;;
76261;Laerm;65076;52.362;6.588;2023-08-12T00:48:09;39.77;32.02;53.78;;
76261;Laerm;65076;52.362;6.588;2023-08-12T00:50:41;66.97;31.75;78.64;;
76261;Laerm;65076;52.362;6.588;2023-08-12T00:53:11;36.29;31.80;48.23;;
76261;Laerm;65076;52.362;6.588;2023-08-12T00:55:41;34.69;31.70;39.97;;
76261;Laerm;65076;52.362;6.588;2023-08-12T00:58:10;35.76;31.79;44.02;;
76261;Laerm;65076;52.362;6.588;2023-08-12T01:00:38;35.45;31.71;47.43;;
76261;Laerm;65076;52.362;6.588;2023-08-12T01:03:07;47.47;31.57;67.58;;
76261;Laerm;65076;52.362;6.588;2023-08-12T01:05:36;43.12;31.69;59.64;;
76261;Laerm;65076;52.362;6.588;2023-08-12T01:08:07;35.24;31.94;44.79;;
76261;Laerm;65076;52.362;6.588;2023-08-12T01:10:39;35.73;31.78;45.04;;
76261;Laerm;65076;52.362;6.588;2023-08-12T01:13:26;35.90;32.15;43.44;;
76261;Laerm;65076;52.362;6.588;2023-08-12T01:16:00;39.16;32.71;47.84;;
76261;Laerm;65076;52.362;6.588;2023-08-12T01:18:32;40.32;32.24;57.70;;
76261;Laerm;65076;52.362;6.588;2023-08-12T01:21:01;35.04;31.72;40.90;;
76261;Laerm;65076;52.362;6.588;2023-08-12T01:23:32;34.58;31.63;39.85;;
76261;Laerm;65076;52.362;6.588;2023-08-12T01:26:00;39.23;31.78;54.38;;
76261;Laerm;65076;52.362;6.588;2023-08-12T01:28:28;35.79;31.34;44.07;;
76261;Laerm;65076;52.362;6.588;2023-08-12T01:31:04;35.10;31.87;45.36;;
76261;Laerm;65076;52.362;6.588;2023-08-12T01:33:42;34.90;31.67;39.16;;
76261;Laerm;65076;52.362;6.588;2023-08-12T01:36:16;34.89;31.70;41.75;;
76261;Laerm;65076;52.362;6.588;2023-08-12T01:38:50;35.71;32.23;42.39;;
76261;Laerm;65076;52.362;6.588;2023-08-12T01:41:23;36.70;32.44;43.51;;
76261;Laerm;65076;52.362;6.588;2023-08-12T01:43:51;35.10;32.13;39.83;;
76261;Laerm;65076;52.362;6.588;2023-08-12T01:46:21;35.10;32.27;41.21;;
76261;Laerm;65076;52.362;6.588;2023-08-12T01:48:49;35.27;31.59;47.32;;
76261;Laerm;65076;52.362;6.588;2023-08-12T01:51:17;40.92;31.60;60.28;;
76261;Laerm;65076;52.362;6.588;2023-08-12T01:53:46;35.08;31.47;41.36;;
76261;Laerm;65076;52.362;6.588;2023-08-12T01:56:14;34.23;31.38;38.19;;
76261;Laerm;65076;52.362;6.588;2023-08-12T01:58:43;34.38;30.90;40.05;;
76261;Laerm;65076;52.362;6.588;2023-08-12T02:01:10;35.12;31.81;44.79;;
76261;Laerm;65076;52.362;6.588;2023-08-12T02:03:38;34.36;31.48;40.63;;
76261;Laerm;65076;52.362;6.588;2023-08-12T02:06:07;35.03;31.88;40.39;;
76261;Laerm;65076;52.362;6.588;2023-08-12T02:08:35;34.29;31.64;40.68;;
76261;Laerm;65076;52.362;6.588;2023-08-12T02:11:04;34.45;31.32;40.62;;
76261;Laerm;65076;52.362;6.588;2023-08-12T02:13:32;34.11;31.72;37.63;;
76261;Laerm;65076;52.362;6.588;2023-08-12T02:16:00;34.44;30.98;41.51;;
76261;Laerm;65076;52.362;6.588;2023-08-12T02:18:28;37.28;31.89;53.32;;
76261;Laerm;65076;52.362;6.588;2023-08-12T02:20:56;36.38;31.75;52.60;;
76261;Laerm;65076;52.362;6.588;2023-08-12T02:23:24;34.73;32.02;38.13;;
76261;Laerm;65076;52.362;6.588;2023-08-12T02:25:52;37.34;31.78;44.75;;
76261;Laerm;65076;52.362;6.588;2023-08-12T02:28:22;35.33;31.38;41.53;;
76261;Laerm;65076;52.362;6.588;2023-08-12T02:30:50;35.31;32.09;44.11;;
76261;Laerm;65076;52.362;6.588;2023-08-12T02:33:18;43.79;31.47;61.68;;
76261;Laerm;65076;52.362;6.588;2023-08-12T02:35:46;34.52;31.53;38.25;;
76261;Laerm;65076;52.362;6.588;2023-08-12T02:38:14;35.16;32.06;39.52;;
76261;Laerm;65076;52.362;6.588;2023-08-12T02:40:42;44.45;32.22;60.98;;
76261;Laerm;65076;52.362;6.588;2023-08-12T02:43:10;36.02;32.57;45.13;;
76261;Laerm;65076;52.362;6.588;2023-08-12T02:45:40;34.72;32.15;39.50;;
76261;Laerm;65076;52.362;6.588;2023-08-12T02:48:09;34.32;31.38;37.83;;
76261;Laerm;65076;52.362;6.588;2023-08-12T02:50:38;34.43;31.59;38.79;;
76261;Laerm;65076;52.362;6.588;2023-08-12T02:53:07;34.73;31.68;39.66;;
76261;Laerm;65076;52.362;6.588;2023-08-12T02:55:35;34.36;31.67;38.08;;
76261;Laerm;65076;52.362;6.588;2023-08-12T02:58:04;35.06;32.21;39.10;;
76261;Laerm;65076;52.362;6.588;2023-08-12T03:00:32;36.49;32.04;53.64;;
76261;Laerm;65076;52.362;6.588;2023-08-12T03:03:02;38.51;32.23;52.81;;
76261;Laerm;65076;52.362;6.588;2023-08-12T03:05:32;34.70;32.00;38.17;;
76261;Laerm;65076;52.362;6.588;2023-08-12T03:08:01;48.40;32.85;67.82;;
76261;Laerm;65076;52.362;6.588;2023-08-12T03:10:30;35.39;32.66;38.81;;
76261;Laerm;65076;52.362;6.588;2023-08-12T03:12:59;35.35;32.46;41.91;;
76261;Laerm;65076;52.362;6.588;2023-08-12T03:15:26;35.78;32.41;41.24;;
76261;Laerm;65076;52.362;6.588;2023-08-12T03:17:56;39.60;32.34;52.80;;
76261;Laerm;65076;52.362;6.588;2023-08-12T03:20:25;34.57;31.88;37.98;;
76261;Laerm;65076;52.362;6.588;2023-08-12T03:22:53;35.50;31.22;40.27;;
76261;Laerm;65076;52.362;6.588;2023-08-12T03:25:21;34.58;32.01;38.95;;
76261;Laerm;65076;52.362;6.588;2023-08-12T03:27:49;37.49;32.08;57.24;;
76261;Laerm;65076;52.362;6.588;2023-08-12T03:30:17;37.28;32.47;46.44;;
76261;Laerm;65076;52.362;6.588;2023-08-12T03:32:45;39.90;33.92;51.18;;
76261;Laerm;65076;52.362;6.588;2023-08-12T03:35:13;35.69;32.68;42.53;;
76261;Laerm;65076;52.362;6.588;2023-08-12T03:37:46;36.82;32.56;56.07;;
76261;Laerm;65076;52.362;6.588;2023-08-12T03:40:15;35.57;32.12;42.42;;
76261;Laerm;65076;52.362;6.588;2023-08-12T03:42:42;36.90;32.47;55.43;;
76261;Laerm;65076;52.362;6.588;2023-08-12T03:45:10;45.82;32.19;65.96;;
76261;Laerm;65076;52.362;6.588;2023-08-12T03:47:38;41.99;32.40;57.62;;
76261;Laerm;65076;52.362;6.588;2023-08-12T03:50:07;37.65;32.66;53.18;;
76261;Laerm;65076;52.362;6.588;2023-08-12T03:52:35;35.13;31.96;43.64;;
76261;Laerm;65076;52.362;6.588;2023-08-12T03:55:06;43.35;32.21;60.32;;
76261;Laerm;65076;52.362;6.588;2023-08-12T03:57:34;44.38;31.63;59.54;;
76261;Laerm;65076;52.362;6.588;2023-08-12T04:00:03;35.36;32.22;48.28;;
76261;Laerm;65076;52.362;6.588;2023-08-12T04:02:33;37.26;32.48;48.74;;
76261;Laerm;65076;52.362;6.588;2023-08-12T04:05:02;55.67;32.79;72.97;;
76261;Laerm;65076;52.362;6.588;2023-08-12T04:07:31;41.82;33.32;57.33;;
76261;Laerm;65076;52.362;6.588;2023-08-12T04:09:59;46.84;32.71;62.66;;
76261;Laerm;65076;52.362;6.588;2023-08-12T04:12:28;36.66;32.99;45.56;;
76261;Laerm;65076;52.362;6.588;2023-08-12T04:14:56;52.22;33.95;68.00;;
76261;Laerm;65076;52.362;6.588;2023-08-12T04:17:24;45.16;34.27;60.51;;
76261;Laerm;65076;52.362;6.588;2023-08-12T04:19:52;36.78;33.55;46.44;;
76261;Laerm;65076;52.362;6.588;2023-08-12T04:22:20;46.62;33.48;65.54;;
76261;Laerm;65076;52.362;6.588;2023-08-12T04:24:48;37.37;32.83;57.56;;
76261;Laerm;65076;52.362;6.588;2023-08-12T04:27:16;42.47;32.84;56.50;;
76261;Laerm;65076;52.362;6.588;2023-08-12T04:29:46;49.82;33.82;69.89;;
76261;Laerm;65076;52.362;6.588;2023-08-12T04:32:14;44.26;34.00;58.66;;
76261;Laerm;65076;52.362;6.588;2023-08-12T04:34:44;42.20;33.00;58.64;;
76261;Laerm;65076;52.362;6.588;2023-08-12T04:37:12;41.33;33.03;60.14;;
76261;Laerm;65076;52.362;6.588;2023-08-12T04:39:41;45.49;33.33;64.32;;
76261;Laerm;65076;52.362;6.588;2023-08-12T04:42:09;59.55;35.56;75.85;;
76261;Laerm;65076;52.362;6.588;2023-08-12T04:44:37;45.99;33.08;64.62;;
76261;Laerm;65076;52.362;6.588;2023-08-12T04:47:06;42.37;35.00;55.79;;
76261;Laerm;65076;52.362;6.588;2023-08-12T04:49:35;37.33;33.47;47.72;;
76261;Laerm;65076;52.362;6.588;2023-08-12T04:52:03;48.49;33.81;66.60;;
76261;Laerm;65076;52.362;6.588;2023-08-12T04:54:32;44.49;32.95;60.14;;
76261;Laerm;65076;52.362;6.588;2023-08-12T04:57:00;41.32;33.76;54.77;;
76261;Laerm;65076;52.362;6.588;2023-08-12T04:59:28;50.12;34.77;69.65;;
76261;Laerm;65076;52.362;6.588;2023-08-12T05:01:56;44.36;33.72;59.24;;
76261;Laerm;65076;52.362;6.588;2023-08-12T05:04:32;44.35;34.27;58.75;;
76261;Laerm;65076;52.362;6.588;2023-08-12T05:07:00;43.70;33.39;56.32;;
76261;Laerm;65076;52.362;6.588;2023-08-12T05:09:28;56.68;33.99;77.16;;
76261;Laerm;65076;52.362;6.588;2023-08-12T05:11:56;56.57;33.78;74.76;;
76261;Laerm;65076;52.362;6.588;2023-08-12T05:14:24;47.38;34.16;63.63;;
76261;Laerm;65076;52.362;6.588;2023-08-12T05:16:52;41.80;34.68;51.50;;
76261;Laerm;65076;52.362;6.588;2023-08-12T05:19:20;47.48;33.85;58.41;;
76261;Laerm;65076;52.362;6.588;2023-08-12T05:21:50;43.86;33.24;61.27;;
76261;Laerm;65076;52.362;6.588;2023-08-12T05:24:18;50.78;34.51;65.29;;
76261;Laerm;65076;52.362;6.588;2023-08-12T05:26:46;43.12;33.37;58.63;;
76261;Laerm;65076;52.362;6.588;2023-08-12T05:29:14;45.71;33.51;63.07;;
76261;Laerm;65076;52.362;6.588;2023-08-12T05:31:43;40.46;33.56;58.27;;
76261;Laerm;65076;52.362;6.588;2023-08-12T05:34:11;43.11;33.48;59.64;;
76261;Laerm;65076;52.362;6.588;2023-08-12T05:36:39;53.76;34.28;77.26;;
76261;Laerm;65076;52.362;6.588;2023-08-12T05:39:09;56.91;34.00;77.27;;
76261;Laerm;65076;52.362;6.588;2023-08-12T05:41:37;58.84;35.07;79.09;;
76261;Laerm;65076;52.362;6.588;2023-08-12T05:44:06;45.33;33.83;62.35;;
76261;Laerm;65076;52.362;6.588;2023-08-12T05:46:34;47.98;34.37;66.56;;
76261;Laerm;65076;52.362;6.588;2023-08-12T05:49:02;45.22;33.15;60.19;;
76261;Laerm;65076;52.362;6.588;2023-08-12T05:51:30;55.18;33.78;74.42;;
76261;Laerm;65076;52.362;6.588;2023-08-12T05:53:58;53.41;35.72;70.11;;
76261;Laerm;65076;52.362;6.588;2023-08-12T05:56:27;50.84;33.70;65.39;;
76261;Laerm;65076;52.362;6.588;2023-08-12T05:58:55;50.17;34.24;69.40;;
76261;Laerm;65076;52.362;6.588;2023-08-12T06:01:23;49.44;34.07;63.37;;
76261;Laerm;65076;52.362;6.588;2023-08-12T06:03:51;45.73;33.73;62.53;;
76261;Laerm;65076;52.362;6.588;2023-08-12T06:06:20;51.55;33.70;67.16;;
76261;Laerm;65076;52.362;6.588;2023-08-12T06:08:48;59.09;37.61;77.17;;
76261;Laerm;65076;52.362;6.588;2023-08-12T06:11:16;57.17;34.65;75.45;;
76261;Laerm;65076;52.362;6.588;2023-08-12T06:13:45;41.13;33.03;53.97;;
76261;Laerm;65076;52.362;6.588;2023-08-12T06:16:13;66.83;35.06;80.85;;
76261;Laerm;65076;52.362;6.588;2023-08-12T06:18:41;55.63;34.63;73.70;;
76261;Laerm;65076;52.362;6.588;2023-08-12T06:21:09;52.63;34.17;67.80;;
76261;Laerm;65076;52.362;6.588;2023-08-12T06:23:37;51.03;35.61;66.06;;
76261;Laerm;65076;52.362;6.588;2023-08-12T06:26:05;52.83;35.43;68.23;;
76261;Laerm;65076;52.362;6.588;2023-08-12T06:28:33;50.37;34.98;65.19;;
76261;Laerm;65076;52.362;6.588;2023-08-12T06:31:03;50.65;38.31;64.09;;
76261;Laerm;65076;52.362;6.588;2023-08-12T06:33:31;51.39;36.43;66.35;;
76261;Laerm;65076;52.362;6.588;2023-08-12T06:35:59;50.14;38.00;66.32;;
76261;Laerm;65076;52.362;6.588;2023-08-12T06:38:26;57.81;36.56;77.83;;
76261;Laerm;65076;52.362;6.588;2023-08-12T06:40:55;56.91;37.28;74.91;;
76261;Laerm;65076;52.362;6.588;2023-08-12T06:43:23;61.02;42.13;75.62;;
76261;Laerm;65076;52.362;6.588;2023-08-12T06:45:54;55.12;43.52;69.37;;
76261;Laerm;65076;52.362;6.588;2023-08-12T06:48:24;53.47;43.83;68.62;;
76261;Laerm;65076;52.362;6.588;2023-08-12T06:50:56;56.94;43.64;73.02;;
76261;Laerm;65076;52.362;6.588;2023-08-12T06:53:26;54.99;43.53;66.98;;
76261;Laerm;65076;52.362;6.588;2023-08-12T06:55:54;54.10;43.74;67.91;;
76261;Laerm;65076;52.362;6.588;2023-08-12T06:58:22;54.61;43.96;67.25;;
76261;Laerm;65076;52.362;6.588;2023-08-12T07:00:50;57.69;45.56;72.26;;
76261;Laerm;65076;52.362;6.588;2023-08-12T07:03:20;56.01;42.99;71.86;;
76261;Laerm;65076;52.362;6.588;2023-08-12T07:05:50;54.23;43.62;72.39;;
76261;Laerm;65076;52.362;6.588;2023-08-12T07:08:18;57.90;47.46;75.28;;
76261;Laerm;65076;52.362;6.588;2023-08-12T07:10:46;61.12;47.20;78.28;;
76261;Laerm;65076;52.362;6.588;2023-08-12T07:13:14;59.38;45.50;77.40;;
76261;Laerm;65076;52.362;6.588;2023-08-12T07:15:42;58.60;46.10;80.89;;
76261;Laerm;65076;52.362;6.588;2023-08-12T07:18:10;58.87;48.64;83.04;;
76261;Laerm;65076;52.362;6.588;2023-08-12T07:20:38;58.78;47.29;77.47;;
76261;Laerm;65076;52.362;6.588;2023-08-12T07:23:08;58.65;44.01;78.45;;
76261;Laerm;65076;52.362;6.588;2023-08-12T07:25:35;55.06;39.76;73.21;;
76261;Laerm;65076;52.362;6.588;2023-08-12T07:28:04;52.77;39.18;80.31;;
76261;Laerm;65076;52.362;6.588;2023-08-12T07:30:34;55.08;39.48;79.29;;
76261;Laerm;65076;52.362;6.588;2023-08-12T07:33:04;51.28;37.71;66.07;;
76261;Laerm;65076;52.362;6.588;2023-08-12T07:35:32;49.69;38.55;81.38;;
76261;Laerm;65076;52.362;6.588;2023-08-12T07:38:00;59.27;40.06;77.86;;
76261;Laerm;65076;52.362;6.588;2023-08-12T07:40:30;59.24;38.39;74.38;;
76261;Laerm;65076;52.362;6.588;2023-08-12T07:42:57;53.36;39.24;78.69;;
76261;Laerm;65076;52.362;6.588;2023-08-12T07:45:25;55.75;41.70;76.89;;
76261;Laerm;65076;52.362;6.588;2023-08-12T07:47:53;65.90;41.44;82.68;;
76261;Laerm;65076;52.362;6.588;2023-08-12T07:50:22;56.73;44.78;74.83;;
76261;Laerm;65076;52.362;6.588;2023-08-12T07:52:50;56.85;45.63;75.15;;
76261;Laerm;65076;52.362;6.588;2023-08-12T07:55:18;61.02;47.77;81.75;;
76261;Laerm;65076;52.362;6.588;2023-08-12T07:57:48;58.96;48.27;81.44;;
76261;Laerm;65076;52.362;6.588;2023-08-12T08:00:17;59.43;45.88;83.04;;
76261;Laerm;65076;52.362;6.588;2023-08-12T08:02:45;61.06;46.12;85.08;;
76261;Laerm;65076;52.362;6.588;2023-08-12T08:05:13;56.80;40.87;80.76;;
76261;Laerm;65076;52.362;6.588;2023-08-12T08:07:41;60.02;41.95;79.94;;
76261;Laerm;65076;52.362;6.588;2023-08-12T08:10:10;59.64;40.10;82.15;;
76261;Laerm;65076;52.362;6.588;2023-08-12T08:12:38;58.55;41.04;79.76;;
76261;Laerm;65076;52.362;6.588;2023-08-12T08:15:09;59.65;42.42;81.64;;
76261;Laerm;65076;52.362;6.588;2023-08-12T08:17:37;55.82;44.46;77.24;;
76261;Laerm;65076;52.362;6.588;2023-08-12T08:20:06;56.23;43.05;72.75;;
76261;Laerm;65076;52.362;6.588;2023-08-12T08:22:34;60.51;46.49;82.10;;
76261;Laerm;65076;52.362;6.588;2023-08-12T08:25:04;58.34;43.71;76.40;;
76261;Laerm;65076;52.362;6.588;2023-08-12T08:27:32;55.33;43.03;67.89;;
76261;Laerm;65076;52.362;6.588;2023-08-12T08:30:00;55.93;40.51;69.11;;
76261;Laerm;65076;52.362;6.588;2023-08-12T08:32:29;55.56;43.29;81.72;;
76261;Laerm;65076;52.362;6.588;2023-08-12T08:34:58;56.55;43.16;68.31;;
76261;Laerm;65076;52.362;6.588;2023-08-12T08:37:26;59.49;42.44;78.31;;
76261;Laerm;65076;52.362;6.588;2023-08-12T08:39:54;56.01;47.88;72.09;;
76261;Laerm;65076;52.362;6.588;2023-08-12T08:42:24;59.15;47.47;76.63;;
76261;Laerm;65076;52.362;6.588;2023-08-12T08:44:53;62.20;50.15;75.99;;
76261;Laerm;65076;52.362;6.588;2023-08-12T08:47:26;58.24;48.76;78.83;;
76261;Laerm;65076;52.362;6.588;2023-08-12T08:49:57;57.72;45.97;69.81;;
76261;Laerm;65076;52.362;6.588;2023-08-12T08:52:26;56.99;43.77;72.30;;
76261;Laerm;65076;52.362;6.588;2023-08-12T08:54:54;56.99;45.30;68.17;;
76261;Laerm;65076;52.362;6.588;2023-08-12T08:57:22;57.17;43.19;72.28;;
76261;Laerm;65076;52.362;6.588;2023-08-12T09:00:06;57.39;44.68;70.41;;
76261;Laerm;65076;52.362;6.588;2023-08-12T09:02:40;57.24;41.66;69.92;;
76261;Laerm;65076;52.362;6.588;2023-08-12T09:05:13;57.13;43.04;66.95;;
76261;Laerm;65076;52.362;6.588;2023-08-12T09:07:42;56.51;41.53;76.21;;
76261;Laerm;65076;52.362;6.588;2023-08-12T09:10:11;61.13;46.21;77.09;;
76261;Laerm;65076;52.362;6.588;2023-08-12T09:12:45;56.97;42.16;71.48;;
76261;Laerm;65076;52.362;6.588;2023-08-12T09:15:16;55.18;39.66;68.71;;
76261;Laerm;65076;52.362;6.588;2023-08-12T09:17:45;53.82;39.96;73.97;;
76261;Laerm;65076;52.362;6.588;2023-08-12T09:20:14;54.60;40.90;68.69;;
76261;Laerm;65076;52.362;6.588;2023-08-12T09:22:43;60.45;39.21;76.03;;
76261;Laerm;65076;52.362;6.588;2023-08-12T09:25:11;56.22;40.93;68.29;;
76261;Laerm;65076;52.362;6.588;2023-08-12T09:27:39;54.62;42.33;72.51;;
76261;Laerm;65076;52.362;6.588;2023-08-12T09:30:08;52.59;42.45;64.34;;
76261;Laerm;65076;52.362;6.588;2023-08-12T09:32:36;56.43;44.33;69.73;;
76261;Laerm;65076;52.362;6.588;2023-08-12T09:35:16;57.34;40.94;67.17;;
76261;Laerm;65076;52.362;6.588;2023-08-12T09:37:44;59.32;43.90;76.33;;
76261;Laerm;65076;52.362;6.588;2023-08-12T09:40:12;60.99;46.75;75.11;;
76261;Laerm;65076;52.362;6.588;2023-08-12T09:42:45;58.63;45.81;71.68;;
76261;Laerm;65076;52.362;6.588;2023-08-12T09:45:14;57.51;42.86;70.46;;
76261;Laerm;65076;52.362;6.588;2023-08-12T09:47:42;66.11;45.23;77.54;;
76261;Laerm;65076;52.362;6.588;2023-08-12T09:50:11;58.91;43.50;74.05;;
76261;Laerm;65076;52.362;6.588;2023-08-12T09:52:41;56.95;43.93;68.55;;
76261;Laerm;65076;52.362;6.588;2023-08-12T09:55:11;56.20;39.26;68.14;;
76261;Laerm;65076;52.362;6.588;2023-08-12T09:57:43;57.84;39.60;73.09;;
76261;Laerm;65076;52.362;6.588;2023-08-12T10:00:14;57.09;45.99;68.85;;
76261;Laerm;65076;52.362;6.588;2023-08-12T10:02:46;54.59;42.92;64.84;;
76261;Laerm;65076;52.362;6.588;2023-08-12T10:05:19;54.25;42.76;65.43;;
76261;Laerm;65076;52.362;6.588;2023-08-12T10:07:52;57.39;44.27;76.33;;
76261;Laerm;65076;52.362;6.588;2023-08-12T10:10:21;56.79;40.55;75.16;;
76261;Laerm;65076;52.362;6.588;2023-08-12T10:12:50;60.66;42.17;75.68;;
76261;Laerm;65076;52.362;6.588;2023-08-12T10:15:20;58.91;41.16;75.23;;
76261;Laerm;65076;52.362;6.588;2023-08-12T10:17:51;54.74;41.79;66.11;;
76261;Laerm;65076;52.362;6.588;2023-08-12T10:20:25;54.94;40.00;65.67;;
76261;Laerm;65076;52.362;6.588;2023-08-12T10:22:55;53.41;43.32;63.71;;
76261;Laerm;65076;52.362;6.588;2023-08-12T10:25:31;58.02;43.18;74.34;;
76261;Laerm;65076;52.362;6.588;2023-08-12T10:28:01;52.67;42.34;64.35;;
76261;Laerm;65076;52.362;6.588;2023-08-12T10:30:29;57.66;42.58;67.30;;
76261;Laerm;65076;52.362;6.588;2023-08-12T10:32:59;57.37;44.85;69.69;;
76261;Laerm;65076;52.362;6.588;2023-08-12T10:35:42;56.96;40.38;68.77;;
76261;Laerm;65076;52.362;6.588;2023-08-12T10:38:13;59.26;44.93;78.30;;
76261;Laerm;65076;52.362;6.588;2023-08-12T10:40:42;61.96;44.19;75.69;;
76261;Laerm;65076;52.362;6.588;2023-08-12T10:43:11;60.66;37.61;75.71;;
76261;Laerm;65076;52.362;6.588;2023-08-12T10:45:48;56.97;41.00;67.38;;
76261;Laerm;65076;52.362;6.588;2023-08-12T10:48:19;58.22;41.44;73.78;;
76261;Laerm;65076;52.362;6.588;2023-08-12T10:50:55;54.37;39.95;64.48;;
76261;Laerm;65076;52.362;6.588;2023-08-12T10:53:26;59.84;42.47;74.68;;
76261;Laerm;65076;52.362;6.588;2023-08-12T10:56:01;54.53;41.35;65.71;;
76261;Laerm;65076;52.362;6.588;2023-08-12T10:58:35;52.82;38.19;67.12;;
76261;Laerm;65076;52.362;6.588;2023-08-12T11:01:03;57.57;44.48;70.51;;
76261;Laerm;65076;52.362;6.588;2023-08-12T11:03:42;53.34;35.68;71.26;;
76261;Laerm;65076;52.362;6.588;2023-08-12T11:06:10;54.06;39.02;65.40;;
76261;Laerm;65076;52.362;6.588;2023-08-12T11:08:47;61.17;42.53;77.78;;
76261;Laerm;65076;52.362;6.588;2023-08-12T11:11:21;62.76;43.62;74.29;;
76261;Laerm;65076;52.362;6.588;2023-08-12T11:13:53;52.38;38.28;62.78;;
76261;Laerm;65076;52.362;6.588;2023-08-12T11:16:32;54.88;39.36;65.74;;
76261;Laerm;65076;52.362;6.588;2023-08-12T11:19:03;52.62;38.29;61.43;;
76261;Laerm;65076;52.362;6.588;2023-08-12T11:21:31;60.06;38.51;78.49;;
76261;Laerm;65076;52.362;6.588;2023-08-12T11:24:04;52.81;36.90;67.66;;
76261;Laerm;65076;52.362;6.588;2023-08-12T11:26:32;54.13;37.20;65.88;;
76261;Laerm;65076;52.362;6.588;2023-08-12T11:29:00;61.71;41.19;76.92;;
76261;Laerm;65076;52.362;6.588;2023-08-12T11:31:28;53.62;42.83;65.22;;
76261;Laerm;65076;52.362;6.588;2023-08-12T11:33:56;51.40;36.07;63.15;;
76261;Laerm;65076;52.362;6.588;2023-08-12T11:36:25;56.11;36.47;73.89;;
76261;Laerm;65076;52.362;6.588;2023-08-12T11:38:53;58.77;41.97;76.75;;
76261;Laerm;65076;52.362;6.588;2023-08-12T11:41:23;60.08;40.03;76.42;;
76261;Laerm;65076;52.362;6.588;2023-08-12T11:43:51;53.31;39.98;67.12;;
76261;Laerm;65076;52.362;6.588;2023-08-12T11:46:19;53.39;38.27;68.59;;
76261;Laerm;65076;52.362;6.588;2023-08-12T11:48:47;51.51;40.45;66.16;;
76261;Laerm;65076;52.362;6.588;2023-08-12T11:51:17;59.76;41.70;74.98;;
76261;Laerm;65076;52.362;6.588;2023-08-12T11:53:45;52.39;40.40;67.05;;
76261;Laerm;65076;52.362;6.588;2023-08-12T11:56:14;50.16;38.18;64.03;;
76261;Laerm;65076;52.362;6.588;2023-08-12T11:58:43;52.20;39.91;68.54;;
76261;Laerm;65076;52.362;6.588;2023-08-12T12:01:20;53.82;39.03;67.29;;
76261;Laerm;65076;52.362;6.588;2023-08-12T12:03:51;54.76;42.86;71.14;;
76261;Laerm;65076;52.362;6.588;2023-08-12T12:06:29;52.70;39.59;66.62;;
76261;Laerm;65076;52.362;6.588;2023-08-12T12:09:01;56.60;40.08;75.09;;
76261;Laerm;65076;52.362;6.588;2023-08-12T12:11:31;56.29;41.85;73.62;;
76261;Laerm;65076;52.362;6.588;2023-08-12T12:14:03;52.79;39.90;65.55;;
76261;Laerm;65076;52.362;6.588;2023-08-12T12:16:39;52.94;40.04;68.35;;
76261;Laerm;65076;52.362;6.588;2023-08-12T12:19:16;54.17;38.53;67.99;;
76261;Laerm;65076;52.362;6.588;2023-08-12T12:21:46;56.63;42.01;73.62;;
76261;Laerm;65076;52.362;6.588;2023-08-12T12:24:15;52.85;40.45;67.22;;
76261;Laerm;65076;52.362;6.588;2023-08-12T12:26:46;52.83;41.45;65.83;;
76261;Laerm;65076;52.362;6.588;2023-08-12T12:29:16;59.28;39.24;79.01;;
76261;Laerm;65076;52.362;6.588;2023-08-12T12:31:45;52.94;39.35;64.92;;
76261;Laerm;65076;52.362;6.588;2023-08-12T12:34:13;53.40;40.87;64.58;;
76261;Laerm;65076;52.362;6.588;2023-08-12T12:36:41;53.61;40.49;66.65;;
76261;Laerm;65076;52.362;6.588;2023-08-12T12:39:09;56.33;44.11;74.68;;
76261;Laerm;65076;52.362;6.588;2023-08-12T12:41:38;60.23;43.81;78.79;;
76261;Laerm;65076;52.362;6.588;2023-08-12T12:44:06;66.36;41.01;78.13;;
76261;Laerm;65076;52.362;6.588;2023-08-12T12:46:36;53.20;41.98;69.73;;
76261;Laerm;65076;52.362;6.588;2023-08-12T12:49:03;53.58;40.35;66.33;;
76261;Laerm;65076;52.362;6.588;2023-08-12T12:51:31;56.71;41.41;73.51;;
76261;Laerm;65076;52.362;6.588;2023-08-12T12:53:59;53.61;42.70;66.81;;
76261;Laerm;65076;52.362;6.588;2023-08-12T12:56:27;52.26;40.29;65.51;;
76261;Laerm;65076;52.362;6.588;2023-08-12T12:58:55;52.02;37.19;69.88;;
76261;Laerm;65076;52.362;6.588;2023-08-12T13:01:23;53.38;40.53;70.70;;
76261;Laerm;65076;52.362;6.588;2023-08-12T13:03:53;59.65;38.44;79.91;;
76261;Laerm;65076;52.362;6.588;2023-08-12T13:06:20;53.45;40.22;67.17;;
76261;Laerm;65076;52.362;6.588;2023-08-12T13:08:49;57.03;39.24;75.03;;
76261;Laerm;65076;52.362;6.588;2023-08-12T13:11:17;56.68;40.19;74.04;;
76261;Laerm;65076;52.362;6.588;2023-08-12T13:13:45;50.23;40.25;63.19;;
76261;Laerm;65076;52.362;6.588;2023-08-12T13:16:13;52.49;39.19;63.29;;
76261;Laerm;65076;52.362;6.588;2023-08-12T13:18:42;48.33;37.74;62.28;;
76261;Laerm;65076;52.362;6.588;2023-08-12T13:21:12;53.72;37.45;68.28;;
76261;Laerm;65076;52.362;6.588;2023-08-12T13:23:42;53.32;42.22;67.79;;
76261;Laerm;65076;52.362;6.588;2023-08-12T13:26:10;53.26;40.41;64.44;;
76261;Laerm;65076;52.362;6.588;2023-08-12T13:28:38;53.06;39.02;65.11;;
76261;Laerm;65076;52.362;6.588;2023-08-12T13:31:06;60.79;39.11;75.89;;
76261;Laerm;65076;52.362;6.588;2023-08-12T13:33:35;49.21;38.33;62.05;;
76261;Laerm;65076;52.362;6.588;2023-08-12T13:36:03;59.47;44.72;72.95;;
76261;Laerm;65076;52.362;6.588;2023-08-12T13:38:33;57.70;39.16;72.57;;
76261;Laerm;65076;52.362;6.588;2023-08-12T13:41:01;57.46;37.63;76.11;;
76261;Laerm;65076;52.362;6.588;2023-08-12T13:43:28;51.94;37.80;64.03;;
76261;Laerm;65076;52.362;6.588;2023-08-12T13:45:57;54.14;38.70;66.57;;
76261;Laerm;65076;52.362;6.588;2023-08-12T13:48:25;50.39;36.57;64.63;;
76261;Laerm;65076;52.362;6.588;2023-08-12T13:50:53;57.85;37.22;74.54;;
76261;Laerm;65076;52.362;6.588;2023-08-12T13:53:22;54.12;40.06;71.83;;
76261;Laerm;65076;52.362;6.588;2023-08-12T13:55:52;58.08;36.97;75.39;;